sensor_id;sensor_type;location;lat;lon;timestamp;pressure;altitude;pressure_sealevel;temperature;humidity
86145;BME280;76801;42.716;23.178;2024-02-26T00:01:03;94190.47;;;6.11;74.19
86145;BME280;76801;42.716;23.178;2024-02-26T00:03:28;94197.34;;;6.27;73.01
86145;BME280;76801;42.716;23.178;2024-02-26T00:05:53;94194.94;;;6.33;71.03
86145;BME280;76801;42.716;23.178;2024-02-26T00:08:19;94185.47;;;6.34;71.03
86145;BME280;76801;42.716;23.178;2024-02-26T00:10:44;94182.44;;;6.30;71.83
86145;BME280;76801;42.716;23.178;2024-02-26T00:13:10;94181.97;;;6.27;71.30
86145;BME280;76801;42.716;23.178;2024-02-26T00:15:35;94178.47;;;6.19;71.94
86145;BME280;76801;42.716;23.178;2024-02-26T00:18:01;94183.09;;;6.24;72.23
86145;BME280;76801;42.716;23.178;2024-02-26T00:20:26;94177.34;;;6.14;74.37
86145;BME280;76801;42.716;23.178;2024-02-26T00:22:52;94183.28;;;6.06;74.17
86145;BME280;76801;42.716;23.178;2024-02-26T00:25:17;94182.81;;;6.02;73.70
86145;BME280;76801;42.716;23.178;2024-02-26T00:27:42;94190.16;;;6.14;73.53
86145;BME280;76801;42.716;23.178;2024-02-26T00:30:09;94176.88;;;6.02;74.41
86145;BME280;76801;42.716;23.178;2024-02-26T00:32:35;94179.59;;;6.17;73.92
86145;BME280;76801;42.716;23.178;2024-02-26T00:35:00;94171.09;;;6.25;73.93
86145;BME280;76801;42.716;23.178;2024-02-26T00:37:26;94169.13;;;6.43;72.52
86145;BME280;76801;42.716;23.178;2024-02-26T00:39:51;94171.38;;;6.38;73.63
86145;BME280;76801;42.716;23.178;2024-02-26T00:42:18;94170.78;;;5.95;76.58
86145;BME280;76801;42.716;23.178;2024-02-26T00:44:43;94170.31;;;6.07;76.90
86145;BME280;76801;42.716;23.178;2024-02-26T00:47:09;94163.41;;;6.16;75.40
86145;BME280;76801;42.716;23.178;2024-02-26T00:49:34;94164.34;;;6.40;72.83
86145;BME280;76801;42.716;23.178;2024-02-26T00:51:59;94158.38;;;6.48;71.87
86145;BME280;76801;42.716;23.178;2024-02-26T00:54:25;94147.50;;;6.46;71.00
86145;BME280;76801;42.716;23.178;2024-02-26T00:56:50;94156.63;;;6.48;71.10
86145;BME280;76801;42.716;23.178;2024-02-26T00:59:15;94157.19;;;6.19;73.33
86145;BME280;76801;42.716;23.178;2024-02-26T01:01:41;94161.81;;;6.32;72.61
86145;BME280;76801;42.716;23.178;2024-02-26T01:04:06;94159.38;;;6.30;72.92
86145;BME280;76801;42.716;23.178;2024-02-26T01:06:31;94164.50;;;6.30;73.73
86145;BME280;76801;42.716;23.178;2024-02-26T01:08:57;94159.72;;;6.27;74.22
86145;BME280;76801;42.716;23.178;2024-02-26T01:11:22;94149.47;;;6.27;73.57
86145;BME280;76801;42.716;23.178;2024-02-26T01:13:47;94154.09;;;6.40;73.49
86145;BME280;76801;42.716;23.178;2024-02-26T01:16:13;94152.03;;;6.35;73.20
86145;BME280;76801;42.716;23.178;2024-02-26T01:18:38;94153.66;;;6.20;74.76
86145;BME280;76801;42.716;23.178;2024-02-26T01:21:04;94142.94;;;6.08;74.90
86145;BME280;76801;42.716;23.178;2024-02-26T01:23:33;94147.09;;;6.17;75.19
86145;BME280;76801;42.716;23.178;2024-02-26T01:25:59;94136.50;;;6.29;74.69
86145;BME280;76801;42.716;23.178;2024-02-26T01:28:24;94137.63;;;6.26;75.30
86145;BME280;76801;42.716;23.178;2024-02-26T01:30:49;94138.91;;;6.30;75.91
86145;BME280;76801;42.716;23.178;2024-02-26T01:33:15;94134.59;;;6.31;75.66
86145;BME280;76801;42.716;23.178;2024-02-26T01:35:40;94133.09;;;6.45;75.81
86145;BME280;76801;42.716;23.178;2024-02-26T01:38:05;94140.13;;;6.51;74.86
86145;BME280;76801;42.716;23.178;2024-02-26T01:40:31;94139.75;;;6.71;73.38
86145;BME280;76801;42.716;23.178;2024-02-26T01:42:56;94130.06;;;6.81;72.70
86145;BME280;76801;42.716;23.178;2024-02-26T01:45:21;94127.84;;;6.78;72.33
86145;BME280;76801;42.716;23.178;2024-02-26T01:47:52;94130.88;;;6.81;72.68
86145;BME280;76801;42.716;23.178;2024-02-26T01:50:19;94137.25;;;6.86;73.00
86145;BME280;76801;42.716;23.178;2024-02-26T01:52:49;94133.59;;;6.80;72.62
86145;BME280;76801;42.716;23.178;2024-02-26T01:55:16;94134.88;;;6.84;73.10
86145;BME280;76801;42.716;23.178;2024-02-26T01:57:43;94128.16;;;6.75;73.81
86145;BME280;76801;42.716;23.178;2024-02-26T02:00:09;94137.44;;;6.76;73.74
86145;BME280;76801;42.716;23.178;2024-02-26T02:02:35;94135.53;;;6.78;74.25
86145;BME280;76801;42.716;23.178;2024-02-26T02:05:01;94133.94;;;6.77;72.95
86145;BME280;76801;42.716;23.178;2024-02-26T02:07:28;94123.34;;;6.80;73.46
86145;BME280;76801;42.716;23.178;2024-02-26T02:09:54;94131.56;;;6.67;73.92
86145;BME280;76801;42.716;23.178;2024-02-26T02:12:21;94135.63;;;6.53;75.40
86145;BME280;76801;42.716;23.178;2024-02-26T02:14:46;94120.31;;;6.36;75.45
86145;BME280;76801;42.716;23.178;2024-02-26T02:17:12;94129.09;;;6.42;76.30
86145;BME280;76801;42.716;23.178;2024-02-26T02:19:37;94129.88;;;6.43;75.69
86145;BME280;76801;42.716;23.178;2024-02-26T02:22:03;94121.28;;;6.27;76.52
86145;BME280;76801;42.716;23.178;2024-02-26T02:24:28;94124.81;;;6.34;76.45
86145;BME280;76801;42.716;23.178;2024-02-26T02:26:53;94119.69;;;6.26;76.26
86145;BME280;76801;42.716;23.178;2024-02-26T02:29:20;94124.31;;;6.39;75.50
86145;BME280;76801;42.716;23.178;2024-02-26T02:31:45;94120.91;;;6.47;76.25
86145;BME280;76801;42.716;23.178;2024-02-26T02:34:11;94120.91;;;6.47;75.85
86145;BME280;76801;42.716;23.178;2024-02-26T02:36:53;94109.34;;;6.59;74.96
86145;BME280;76801;42.716;23.178;2024-02-26T02:39:19;94114.44;;;6.67;74.56
86145;BME280;76801;42.716;23.178;2024-02-26T02:41:44;94105.41;;;6.80;74.93
86145;BME280;76801;42.716;23.178;2024-02-26T02:44:10;94118.66;;;6.92;74.38
86145;BME280;76801;42.716;23.178;2024-02-26T02:46:35;94119.16;;;6.87;73.29
86145;BME280;76801;42.716;23.178;2024-02-26T02:49:01;94129.16;;;6.74;74.90
86145;BME280;76801;42.716;23.178;2024-02-26T02:51:26;94126.09;;;6.78;75.00
86145;BME280;76801;42.716;23.178;2024-02-26T02:53:52;94122.84;;;6.84;73.63
86145;BME280;76801;42.716;23.178;2024-02-26T02:56:17;94131.66;;;6.90;73.69
86145;BME280;76801;42.716;23.178;2024-02-26T02:58:42;94141.06;;;6.98;74.34
86145;BME280;76801;42.716;23.178;2024-02-26T03:01:08;94131.59;;;6.98;74.15
86145;BME280;76801;42.716;23.178;2024-02-26T03:03:33;94134.28;;;7.05;73.41
86145;BME280;76801;42.716;23.178;2024-02-26T03:05:58;94138.41;;;7.14;72.45
86145;BME280;76801;42.716;23.178;2024-02-26T03:08:24;94127.31;;;7.22;72.43
86145;BME280;76801;42.716;23.178;2024-02-26T03:10:53;94134.47;;;7.27;72.71
86145;BME280;76801;42.716;23.178;2024-02-26T03:13:18;94123.66;;;7.17;72.86
86145;BME280;76801;42.716;23.178;2024-02-26T03:15:44;94129.56;;;7.17;72.68
86145;BME280;76801;42.716;23.178;2024-02-26T03:18:09;94130.59;;;7.08;73.03
86145;BME280;76801;42.716;23.178;2024-02-26T03:20:34;94134.78;;;7.01;74.40
86145;BME280;76801;42.716;23.178;2024-02-26T03:23:00;94126.00;;;6.95;74.00
86145;BME280;76801;42.716;23.178;2024-02-26T03:25:25;94130.16;;;6.96;73.98
86145;BME280;76801;42.716;23.178;2024-02-26T03:27:50;94124.22;;;6.95;74.71
86145;BME280;76801;42.716;23.178;2024-02-26T03:30:16;94121.53;;;6.89;74.68
86145;BME280;76801;42.716;23.178;2024-02-26T03:32:41;94113.41;;;6.85;75.50
86145;BME280;76801;42.716;23.178;2024-02-26T03:35:07;94113.19;;;6.95;74.53
86145;BME280;76801;42.716;23.178;2024-02-26T03:37:33;94118.75;;;7.07;74.38
86145;BME280;76801;42.716;23.178;2024-02-26T03:39:59;94101.56;;;7.07;73.90
86145;BME280;76801;42.716;23.178;2024-02-26T03:42:26;94099.44;;;7.11;73.22
86145;BME280;76801;42.716;23.178;2024-02-26T03:44:51;94114.84;;;7.11;73.87
86145;BME280;76801;42.716;23.178;2024-02-26T03:47:17;94115.22;;;7.08;73.01
86145;BME280;76801;42.716;23.178;2024-02-26T03:49:42;94112.47;;;7.09;73.51
86145;BME280;76801;42.716;23.178;2024-02-26T03:52:07;94113.53;;;7.15;73.61
86145;BME280;76801;42.716;23.178;2024-02-26T03:54:33;94113.31;;;7.02;73.77
86145;BME280;76801;42.716;23.178;2024-02-26T03:56:58;94095.53;;;7.00;73.53
86145;BME280;76801;42.716;23.178;2024-02-26T03:59:23;94093.53;;;7.10;74.39
86145;BME280;76801;42.716;23.178;2024-02-26T04:01:50;94096.03;;;7.19;73.40
86145;BME280;76801;42.716;23.178;2024-02-26T04:04:16;94105.91;;;7.07;74.31
86145;BME280;76801;42.716;23.178;2024-02-26T04:06:45;94098.78;;;6.94;75.27
86145;BME280;76801;42.716;23.178;2024-02-26T04:09:11;94095.28;;;7.10;74.34
86145;BME280;76801;42.716;23.178;2024-02-26T04:11:36;94086.16;;;7.16;73.96
86145;BME280;76801;42.716;23.178;2024-02-26T04:14:02;94087.78;;;7.08;75.25
86145;BME280;76801;42.716;23.178;2024-02-26T04:16:28;94084.59;;;7.06;75.13
86145;BME280;76801;42.716;23.178;2024-02-26T04:18:53;94082.59;;;7.17;74.94
86145;BME280;76801;42.716;23.178;2024-02-26T04:21:19;94088.84;;;7.14;74.81
86145;BME280;76801;42.716;23.178;2024-02-26T04:23:45;94096.88;;;7.11;74.80
86145;BME280;76801;42.716;23.178;2024-02-26T04:26:30;94102.75;;;6.96;75.65
86145;BME280;76801;42.716;23.178;2024-02-26T04:28:55;94093.47;;;6.95;75.52
86145;BME280;76801;42.716;23.178;2024-02-26T04:31:21;94086.09;;;6.92;76.02
86145;BME280;76801;42.716;23.178;2024-02-26T04:33:46;94095.34;;;7.02;75.79
86145;BME280;76801;42.716;23.178;2024-02-26T04:36:14;94093.31;;;6.97;75.00
86145;BME280;76801;42.716;23.178;2024-02-26T04:38:41;94086.72;;;6.94;75.79
86145;BME280;76801;42.716;23.178;2024-02-26T04:41:06;94100.16;;;7.05;75.57
86145;BME280;76801;42.716;23.178;2024-02-26T04:43:31;94107.00;;;7.12;75.23
86145;BME280;76801;42.716;23.178;2024-02-26T04:45:57;94100.91;;;7.13;73.94
86145;BME280;76801;42.716;23.178;2024-02-26T04:48:22;94102.50;;;7.14;74.90
86145;BME280;76801;42.716;23.178;2024-02-26T04:50:48;94104.34;;;6.97;75.09
86145;BME280;76801;42.716;23.178;2024-02-26T04:53:13;94083.84;;;6.97;74.21
86145;BME280;76801;42.716;23.178;2024-02-26T04:55:39;94114.72;;;7.04;74.58
86145;BME280;76801;42.716;23.178;2024-02-26T04:58:04;94104.47;;;7.04;75.39
86145;BME280;76801;42.716;23.178;2024-02-26T05:00:29;94107.16;;;7.11;74.81
86145;BME280;76801;42.716;23.178;2024-02-26T05:02:55;94115.25;;;7.23;74.62
86145;BME280;76801;42.716;23.178;2024-02-26T05:05:20;94121.69;;;7.19;74.30
86145;BME280;76801;42.716;23.178;2024-02-26T05:07:45;94112.88;;;7.21;74.89
86145;BME280;76801;42.716;23.178;2024-02-26T05:10:11;94110.94;;;7.23;74.34
86145;BME280;76801;42.716;23.178;2024-02-26T05:12:36;94123.16;;;7.13;75.06
86145;BME280;76801;42.716;23.178;2024-02-26T05:15:02;94129.13;;;7.13;75.40
86145;BME280;76801;42.716;23.178;2024-02-26T05:17:28;94121.41;;;7.13;74.93
86145;BME280;76801;42.716;23.178;2024-02-26T05:19:53;94123.16;;;7.13;75.06
86145;BME280;76801;42.716;23.178;2024-02-26T05:22:19;94130.97;;;7.20;74.74
86145;BME280;76801;42.716;23.178;2024-02-26T05:24:44;94133.97;;;7.32;75.09
86145;BME280;76801;42.716;23.178;2024-02-26T05:27:09;94141.31;;;7.35;74.96
86145;BME280;76801;42.716;23.178;2024-02-26T05:29:35;94146.22;;;7.44;74.32
86145;BME280;76801;42.716;23.178;2024-02-26T05:32:00;94145.91;;;7.48;74.37
86145;BME280;76801;42.716;23.178;2024-02-26T05:34:25;94142.81;;;7.52;73.90
86145;BME280;76801;42.716;23.178;2024-02-26T05:36:51;94147.28;;;7.58;74.02
86145;BME280;76801;42.716;23.178;2024-02-26T05:39:16;94148.50;;;7.63;74.34
86145;BME280;76801;42.716;23.178;2024-02-26T05:41:42;94145.59;;;7.66;74.28
86145;BME280;76801;42.716;23.178;2024-02-26T05:44:08;94153.47;;;7.64;73.88
86145;BME280;76801;42.716;23.178;2024-02-26T05:46:35;94155.34;;;7.70;74.04
86145;BME280;76801;42.716;23.178;2024-02-26T05:49:00;94158.44;;;7.66;73.14
86145;BME280;76801;42.716;23.178;2024-02-26T05:51:26;94155.34;;;7.70;74.06
86145;BME280;76801;42.716;23.178;2024-02-26T05:53:51;94156.59;;;7.74;74.46
86145;BME280;76801;42.716;23.178;2024-02-26T05:56:21;94163.16;;;7.77;73.72
86145;BME280;76801;42.716;23.178;2024-02-26T05:58:47;94161.69;;;7.83;72.52
86145;BME280;76801;42.716;23.178;2024-02-26T06:01:12;94163.22;;;7.69;72.43
86145;BME280;76801;42.716;23.178;2024-02-26T06:03:38;94167.50;;;7.77;72.84
86145;BME280;76801;42.716;23.178;2024-02-26T06:06:04;94171.47;;;7.79;72.45
86145;BME280;76801;42.716;23.178;2024-02-26T06:08:29;94161.75;;;7.51;73.35
86145;BME280;76801;42.716;23.178;2024-02-26T06:10:54;94166.56;;;7.69;73.73
86145;BME280;76801;42.716;23.178;2024-02-26T06:13:20;94164.31;;;7.51;74.88
86145;BME280;76801;42.716;23.178;2024-02-26T06:15:46;94166.22;;;7.57;74.15
86145;BME280;76801;42.716;23.178;2024-02-26T06:18:11;94170.81;;;7.39;75.42
86145;BME280;76801;42.716;23.178;2024-02-26T06:20:36;94170.59;;;7.17;76.41
86145;BME280;76801;42.716;23.178;2024-02-26T06:23:02;94173.38;;;7.39;75.63
86145;BME280;76801;42.716;23.178;2024-02-26T06:25:27;94169.16;;;7.46;75.85
86145;BME280;76801;42.716;23.178;2024-02-26T06:27:52;94164.38;;;7.66;74.82
86145;BME280;76801;42.716;23.178;2024-02-26T06:30:18;94176.00;;;7.77;74.04
86145;BME280;76801;42.716;23.178;2024-02-26T06:32:43;94170.84;;;7.77;74.91
86145;BME280;76801;42.716;23.178;2024-02-26T06:35:08;94177.25;;;7.81;74.59
86145;BME280;76801;42.716;23.178;2024-02-26T06:37:36;94176.25;;;7.67;74.54
86145;BME280;76801;42.716;23.178;2024-02-26T06:40:02;94177.84;;;7.68;75.35
86145;BME280;76801;42.716;23.178;2024-02-26T06:42:31;94178.84;;;7.82;75.16
86145;BME280;76801;42.716;23.178;2024-02-26T06:44:57;94177.44;;;7.80;74.80
86145;BME280;76801;42.716;23.178;2024-02-26T06:47:24;94182.25;;;7.98;74.52
86145;BME280;76801;42.716;23.178;2024-02-26T06:49:53;94182.13;;;8.14;73.56
86145;BME280;76801;42.716;23.178;2024-02-26T06:52:25;94182.44;;;8.34;73.09
86145;BME280;76801;42.716;23.178;2024-02-26T06:54:50;94181.91;;;8.39;72.84
86145;BME280;76801;42.716;23.178;2024-02-26T06:57:19;94180.16;;;8.55;72.45
86145;BME280;76801;42.716;23.178;2024-02-26T06:59:44;94180.94;;;8.55;71.77
86145;BME280;76801;42.716;23.178;2024-02-26T07:02:12;94183.88;;;8.67;73.24
86145;BME280;76801;42.716;23.178;2024-02-26T07:04:38;94184.88;;;8.81;72.04
86145;BME280;76801;42.716;23.178;2024-02-26T07:07:03;94173.94;;;8.94;71.77
86145;BME280;76801;42.716;23.178;2024-02-26T07:09:29;94177.22;;;9.03;70.86
86145;BME280;76801;42.716;23.178;2024-02-26T07:11:54;94179.50;;;9.13;71.25
86145;BME280;76801;42.716;23.178;2024-02-26T07:14:20;94177.63;;;9.21;71.06
86145;BME280;76801;42.716;23.178;2024-02-26T07:16:45;94181.25;;;9.27;70.03
86145;BME280;76801;42.716;23.178;2024-02-26T07:19:10;94190.31;;;9.23;70.91
86145;BME280;76801;42.716;23.178;2024-02-26T07:21:36;94186.28;;;9.35;70.77
86145;BME280;76801;42.716;23.178;2024-02-26T07:24:01;94190.28;;;9.38;70.92
86145;BME280;76801;42.716;23.178;2024-02-26T07:26:26;94190.28;;;9.38;70.31
86145;BME280;76801;42.716;23.178;2024-02-26T07:28:52;94189.06;;;9.19;70.83
86145;BME280;76801;42.716;23.178;2024-02-26T07:31:17;94179.69;;;9.11;71.36
86145;BME280;76801;42.716;23.178;2024-02-26T07:33:43;94192.38;;;9.13;71.58
86145;BME280;76801;42.716;23.178;2024-02-26T07:36:08;94192.53;;;9.11;71.70
86145;BME280;76801;42.716;23.178;2024-02-26T07:38:33;94192.63;;;9.18;71.72
86145;BME280;76801;42.716;23.178;2024-02-26T07:40:59;94195.66;;;9.06;71.91
86145;BME280;76801;42.716;23.178;2024-02-26T07:43:24;94194.78;;;8.99;72.47
86145;BME280;76801;42.716;23.178;2024-02-26T07:45:49;94188.38;;;9.10;72.39
86145;BME280;76801;42.716;23.178;2024-02-26T07:48:15;94193.06;;;9.21;72.66
86145;BME280;76801;42.716;23.178;2024-02-26T07:50:40;94201.63;;;9.44;72.58
86145;BME280;76801;42.716;23.178;2024-02-26T07:53:06;94198.75;;;9.53;70.48
86145;BME280;76801;42.716;23.178;2024-02-26T07:55:31;94192.44;;;9.56;70.48
86145;BME280;76801;42.716;23.178;2024-02-26T07:57:57;94192.34;;;9.64;70.75
86145;BME280;76801;42.716;23.178;2024-02-26T08:00:22;94190.59;;;9.71;69.56
86145;BME280;76801;42.716;23.178;2024-02-26T08:02:47;94200.59;;;9.81;69.21
86145;BME280;76801;42.716;23.178;2024-02-26T08:05:13;94189.53;;;9.81;69.48
86145;BME280;76801;42.716;23.178;2024-02-26T08:07:38;94194.41;;;9.97;69.18
86145;BME280;76801;42.716;23.178;2024-02-26T08:10:04;94186.50;;;9.99;68.92
86145;BME280;76801;42.716;23.178;2024-02-26T08:12:29;94195.09;;;10.06;68.07
86145;BME280;76801;42.716;23.178;2024-02-26T08:14:58;94182.09;;;10.21;68.29
86145;BME280;76801;42.716;23.178;2024-02-26T08:17:23;94186.25;;;10.44;66.65
86145;BME280;76801;42.716;23.178;2024-02-26T08:19:49;94180.38;;;10.50;66.14
86145;BME280;76801;42.716;23.178;2024-02-26T08:22:14;94195.91;;;10.63;66.04
86145;BME280;76801;42.716;23.178;2024-02-26T08:24:43;94184.44;;;10.73;66.24
86145;BME280;76801;42.716;23.178;2024-02-26T08:27:08;94185.25;;;10.73;65.75
86145;BME280;76801;42.716;23.178;2024-02-26T08:29:37;94194.69;;;10.95;65.21
86145;BME280;76801;42.716;23.178;2024-02-26T08:32:05;94184.25;;;11.16;65.37
86145;BME280;76801;42.716;23.178;2024-02-26T08:34:32;94178.50;;;11.21;64.35
86145;BME280;76801;42.716;23.178;2024-02-26T08:36:57;94179.31;;;11.28;64.19
86145;BME280;76801;42.716;23.178;2024-02-26T08:39:23;94187.91;;;11.42;63.32
86145;BME280;76801;42.716;23.178;2024-02-26T08:41:48;94191.13;;;11.58;62.00
86145;BME280;76801;42.716;23.178;2024-02-26T08:44:14;94191.13;;;11.64;61.46
86145;BME280;76801;42.716;23.178;2024-02-26T08:46:39;94194.72;;;11.63;62.23
86145;BME280;76801;42.716;23.178;2024-02-26T08:49:04;94186.75;;;11.51;61.24
86145;BME280;76801;42.716;23.178;2024-02-26T08:51:31;94189.56;;;11.70;61.72
86145;BME280;76801;42.716;23.178;2024-02-26T08:53:57;94190.97;;;11.79;61.29
86145;BME280;76801;42.716;23.178;2024-02-26T08:56:22;94191.16;;;11.71;60.79
86145;BME280;76801;42.716;23.178;2024-02-26T08:58:48;94185.44;;;11.89;60.08
86145;BME280;76801;42.716;23.178;2024-02-26T09:01:18;94183.88;;;12.02;59.52
86145;BME280;76801;42.716;23.178;2024-02-26T09:03:44;94182.47;;;11.99;59.91
86145;BME280;76801;42.716;23.178;2024-02-26T09:06:09;94177.31;;;11.99;60.21
86145;BME280;76801;42.716;23.178;2024-02-26T09:08:37;94178.50;;;12.03;60.38
86145;BME280;76801;42.716;23.178;2024-02-26T09:11:02;94178.50;;;12.03;60.04
86145;BME280;76801;42.716;23.178;2024-02-26T09:13:28;94178.31;;;12.11;60.65
86145;BME280;76801;42.716;23.178;2024-02-26T09:15:54;94173.34;;;12.17;59.80
86145;BME280;76801;42.716;23.178;2024-02-26T09:18:20;94177.31;;;12.12;59.96
86145;BME280;76801;42.716;23.178;2024-02-26T09:20:45;94169.16;;;12.29;59.08
86145;BME280;76801;42.716;23.178;2024-02-26T09:23:10;94162.56;;;12.40;58.91
86145;BME280;76801;42.716;23.178;2024-02-26T09:25:36;94169.69;;;12.58;58.82
86145;BME280;76801;42.716;23.178;2024-02-26T09:28:01;94163.91;;;12.76;57.79
86145;BME280;76801;42.716;23.178;2024-02-26T09:30:27;94174.22;;;12.83;56.66
86145;BME280;76801;42.716;23.178;2024-02-26T09:32:52;94178.06;;;12.60;57.27
86145;BME280;76801;42.716;23.178;2024-02-26T09:35:17;94168.69;;;12.79;57.02
86145;BME280;76801;42.716;23.178;2024-02-26T09:37:43;94161.88;;;12.85;57.14
86145;BME280;76801;42.716;23.178;2024-02-26T09:40:10;94172.47;;;12.63;56.36
86145;BME280;76801;42.716;23.178;2024-02-26T09:42:37;94158.94;;;12.61;56.93
86145;BME280;76801;42.716;23.178;2024-02-26T09:45:10;94157.13;;;12.75;56.71
86145;BME280;76801;42.716;23.178;2024-02-26T09:47:37;94161.28;;;12.89;56.64
86145;BME280;76801;42.716;23.178;2024-02-26T09:50:05;94162.41;;;13.07;56.36
86145;BME280;76801;42.716;23.178;2024-02-26T09:52:33;94157.19;;;13.14;56.17
86145;BME280;76801;42.716;23.178;2024-02-26T09:55:00;94158.91;;;13.33;55.50
86145;BME280;76801;42.716;23.178;2024-02-26T09:57:25;94156.50;;;13.39;54.97
86145;BME280;76801;42.716;23.178;2024-02-26T09:59:53;94157.22;;;13.53;54.92
86145;BME280;76801;42.716;23.178;2024-02-26T10:02:20;94153.69;;;13.47;54.46
86145;BME280;76801;42.716;23.178;2024-02-26T10:04:47;94149.31;;;13.47;54.31
86145;BME280;76801;42.716;23.178;2024-02-26T10:07:13;94154.69;;;13.39;54.18
86145;BME280;76801;42.716;23.178;2024-02-26T10:09:39;94144.53;;;13.44;54.60
86145;BME280;76801;42.716;23.178;2024-02-26T10:12:06;94147.72;;;13.40;55.22
86145;BME280;76801;42.716;23.178;2024-02-26T10:14:32;94146.88;;;13.53;54.27
86145;BME280;76801;42.716;23.178;2024-02-26T10:16:58;94139.03;;;13.59;54.38
86145;BME280;76801;42.716;23.178;2024-02-26T10:19:27;94142.22;;;13.61;53.80
86145;BME280;76801;42.716;23.178;2024-02-26T10:21:56;94138.75;;;13.74;54.20
86145;BME280;76801;42.716;23.178;2024-02-26T10:37:50;94108.28;;;13.70;54.17
86145;BME280;76801;42.716;23.178;2024-02-26T10:40:16;94110.66;;;13.71;53.68
86145;BME280;76801;42.716;23.178;2024-02-26T10:42:42;94117.63;;;14.03;52.84
86145;BME280;76801;42.716;23.178;2024-02-26T10:45:09;94101.25;;;13.77;53.23
86145;BME280;76801;42.716;23.178;2024-02-26T10:47:35;94101.25;;;13.77;53.05
86145;BME280;76801;42.716;23.178;2024-02-26T10:50:05;94105.78;;;13.88;53.70
86145;BME280;76801;42.716;23.178;2024-02-26T10:52:35;94097.75;;;14.15;52.85
86145;BME280;76801;42.716;23.178;2024-02-26T10:55:02;94098.94;;;14.38;51.70
86145;BME280;76801;42.716;23.178;2024-02-26T10:57:34;94090.00;;;14.52;51.31
86145;BME280;76801;42.716;23.178;2024-02-26T11:00:03;94087.75;;;14.37;50.88
86145;BME280;76801;42.716;23.178;2024-02-26T11:02:33;94090.28;;;14.63;49.29
86145;BME280;76801;42.716;23.178;2024-02-26T11:05:02;94087.25;;;14.47;47.16
86145;BME280;76801;42.716;23.178;2024-02-26T11:07:29;94086.75;;;14.38;46.98
86145;BME280;76801;42.716;23.178;2024-02-26T11:09:56;94073.50;;;14.28;47.80
86145;BME280;76801;42.716;23.178;2024-02-26T11:12:22;94081.44;;;14.33;47.66
86145;BME280;76801;42.716;23.178;2024-02-26T11:14:49;94086.78;;;14.13;48.34
86145;BME280;76801;42.716;23.178;2024-02-26T11:17:21;94094.16;;;14.16;48.42
86145;BME280;76801;42.716;23.178;2024-02-26T11:19:48;94082.13;;;14.22;48.33
86145;BME280;76801;42.716;23.178;2024-02-26T11:22:15;94082.00;;;14.17;48.48
86145;BME280;76801;42.716;23.178;2024-02-26T11:24:40;94079.00;;;14.13;48.61
86145;BME280;76801;42.716;23.178;2024-02-26T11:27:09;94088.69;;;14.24;48.43
86145;BME280;76801;42.716;23.178;2024-02-26T11:29:44;94079.34;;;14.23;47.91
86145;BME280;76801;42.716;23.178;2024-02-26T11:32:10;94078.31;;;14.24;47.71
86145;BME280;76801;42.716;23.178;2024-02-26T11:34:36;94087.53;;;14.20;47.42
86145;BME280;76801;42.716;23.178;2024-02-26T11:37:14;94080.91;;;14.24;46.94
86145;BME280;76801;42.716;23.178;2024-02-26T11:39:45;94074.72;;;13.81;48.53
86145;BME280;76801;42.716;23.178;2024-02-26T11:42:15;94062.63;;;13.94;48.28
86145;BME280;76801;42.716;23.178;2024-02-26T11:44:41;94069.06;;;14.10;47.08
86145;BME280;76801;42.716;23.178;2024-02-26T11:47:13;94062.75;;;14.06;47.32
86145;BME280;76801;42.716;23.178;2024-02-26T11:49:41;94062.31;;;14.09;47.42
86145;BME280;76801;42.716;23.178;2024-02-26T11:52:08;94057.38;;;14.01;47.16
86145;BME280;76801;42.716;23.178;2024-02-26T11:57:29;94060.41;;;13.98;47.57
86145;BME280;76801;42.716;23.178;2024-02-26T11:59:57;94058.56;;;14.05;47.62
86145;BME280;76801;42.716;23.178;2024-02-26T12:02:51;94067.78;;;14.19;46.81
86145;BME280;76801;42.716;23.178;2024-02-26T12:05:23;94062.59;;;14.19;47.35
86145;BME280;76801;42.716;23.178;2024-02-26T12:07:53;94062.59;;;14.19;45.97
86145;BME280;76801;42.716;23.178;2024-02-26T12:10:35;94066.38;;;14.23;46.74
86145;BME280;76801;42.716;23.178;2024-02-26T12:13:29;94064.78;;;14.22;46.05
86145;BME280;76801;42.716;23.178;2024-02-26T12:15:56;94063.31;;;14.26;45.55
86145;BME280;76801;42.716;23.178;2024-02-26T12:18:22;94061.81;;;14.37;45.35
86145;BME280;76801;42.716;23.178;2024-02-26T12:21:04;94065.56;;;14.41;44.79
86145;BME280;76801;42.716;23.178;2024-02-26T12:23:30;94068.38;;;14.40;44.11
86145;BME280;76801;42.716;23.178;2024-02-26T12:25:59;94078.97;;;14.38;44.75
86145;BME280;76801;42.716;23.178;2024-02-26T12:28:31;94064.19;;;14.20;45.18
86145;BME280;76801;42.716;23.178;2024-02-26T12:30:57;94066.88;;;14.32;45.44
86145;BME280;76801;42.716;23.178;2024-02-26T12:33:25;94068.59;;;14.38;45.09
86145;BME280;76801;42.716;23.178;2024-02-26T12:35:51;94073.16;;;14.43;45.15
86145;BME280;76801;42.716;23.178;2024-02-26T12:38:17;94068.00;;;14.55;44.54
86145;BME280;76801;42.716;23.178;2024-02-26T12:40:42;94069.69;;;14.49;44.61
86145;BME280;76801;42.716;23.178;2024-02-26T12:43:08;94065.38;;;14.43;44.85
86145;BME280;76801;42.716;23.178;2024-02-26T12:45:40;94066.50;;;14.29;45.41
86145;BME280;76801;42.716;23.178;2024-02-26T12:48:06;94066.06;;;14.32;45.14
86145;BME280;76801;42.716;23.178;2024-02-26T12:50:31;94072.25;;;14.31;44.81
86145;BME280;76801;42.716;23.178;2024-02-26T12:52:58;94059.13;;;14.44;44.88
86145;BME280;76801;42.716;23.178;2024-02-26T12:55:23;94063.91;;;14.47;44.18
86145;BME280;76801;42.716;23.178;2024-02-26T12:57:50;94063.13;;;14.28;44.10
86145;BME280;76801;42.716;23.178;2024-02-26T13:00:20;94061.34;;;14.03;44.72
86145;BME280;76801;42.716;23.178;2024-02-26T13:02:47;94064.44;;;14.12;44.37
86145;BME280;76801;42.716;23.178;2024-02-26T13:05:15;94058.22;;;13.94;44.90
86145;BME280;76801;42.716;23.178;2024-02-26T13:07:42;94065.47;;;14.11;44.84
86145;BME280;76801;42.716;23.178;2024-02-26T13:10:08;94064.91;;;14.09;44.33